Aérodrome :
LOGIN :

S'inscrire | Disclaimer

   EN    FR    IT 

 










Légende :    VFR   VFR Marginal   IFR   IFR Intensif   IFR Très Intensif
Visi : 
Plafond : 
>= 8 km
>= 3000ft
5 à 8 km
1000 à 3000 ft
1500m à 5 km
500 à 1000 ft
800 à 1500m
200 à 500 ft
< 800m
< 200 ft
Symboles :   Orages  Brouillard  Fortes neiges  Fortes précipitations  Vent > 20 kt
SIGMETs :   Divers  Orages  Givrage  Turbulence  Onde Orograph.  Cendres Volcan.






- Altitude de l'aérodrome : 177 ft
- Code IATA : BRI


LIBD - Palese Macchie Bari

DERNIER METAR :
  • 250420Z 22004KT CAVOK 15/13 Q1016

METARs EXPIRÉS :
  • 250350Z 21004KT CAVOK 14/12 Q1016
  • 250320Z 22004KT CAVOK 14/12 Q1016
  • 250220Z 22005KT CAVOK 14/13 Q1017
  • 250150Z 21004KT CAVOK 14/13 Q1017
  • 250120Z 21004KT CAVOK 14/13 Q1017
  • 250050Z 23003KT CAVOK 15/13 Q1017
  • 250020Z VRB02KT CAVOK 16/14 Q1017
  • 242350Z 21002KT CAVOK 16/13 Q1017
  • 242320Z 22004KT CAVOK 16/14 Q1017

TAF TAF LIBD
Valide du 25 à 00h jusqu'au 26 à 00h UTC


242300Z 2500/2524 VRB05KT 9999 SCT030
BECMG 2508/2510 03010KT
TEMPO 2512/2518 4000 TSRA
BECMG 2516/2518 28008KT



MET'MAP, la Météo Aéronautique d'un coup d'oeil ! - Copyright ORBIFLY Décembre 2007 - Disclaimer

ORBIFLY MET'MAP TEAM :

Programmation & Développement : Alexandra Zaïnal
Sur une idée originale de : Baudouin d'Aumeries
Soutien technique & logistique : Manuel Goepfert
Assistance : Marc-Olivier Méhu




SOURCES & CREDITS :

   NOAA